createdAt,value
2022-12-17T00:01:39.144Z,70.60
2022-12-17T00:06:59.362Z,74.53
2022-12-17T00:12:19.433Z,68.25
2022-12-17T00:17:39.424Z,70.43
2022-12-17T00:23:00.605Z,64.63
2022-12-17T00:28:20.825Z,66.63
2022-12-17T00:33:41.108Z,74.33
2022-12-17T00:39:04.451Z,69.57
2022-12-17T00:44:24.778Z,74.60
2022-12-17T00:49:58.784Z,68.10
2022-12-17T00:55:18.985Z,76.33
2022-12-17T01:00:39.315Z,66.03
2022-12-17T01:05:59.695Z,69.37
2022-12-17T01:11:29.897Z,74.50
2022-12-17T01:16:50.024Z,66.67
2022-12-17T01:22:10.464Z,73.40
2022-12-17T01:27:30.792Z,75.30
2022-12-17T01:32:51.027Z,68.73
2022-12-17T01:38:12.498Z,66.27
2022-12-17T01:43:48.912Z,71.07
2022-12-17T01:49:09.168Z,71.03
2022-12-17T01:54:30.801Z,72.70
2022-12-17T02:00:06.701Z,71.00
2022-12-17T02:05:34.027Z,75.30
2022-12-17T02:11:13.441Z,76.60
2022-12-17T02:16:45.169Z,71.40
2022-12-17T02:22:09.384Z,69.20
2022-12-17T02:27:30.785Z,77.30
2022-12-17T02:32:53.099Z,71.23
2022-12-17T02:38:14.343Z,75.57
2022-12-17T02:43:36.019Z,73.23
2022-12-17T02:48:56.670Z,72.07
2022-12-17T02:54:21.632Z,71.45
2022-12-17T02:59:42.171Z,69.00
2022-12-17T03:05:35.655Z,71.63
2022-12-17T03:10:48.611Z,69.73
2022-12-17T03:16:08.954Z,76.27
2022-12-17T03:21:29.275Z,70.60
2022-12-17T03:26:50.117Z,76.57
2022-12-17T03:32:11.371Z,75.15
2022-12-17T03:37:31.623Z,71.03
2022-12-17T03:42:51.883Z,80.35
2022-12-17T03:48:31.915Z,78.57
2022-12-17T03:53:52.040Z,78.60
2022-12-17T03:59:12.468Z,78.70
2022-12-17T04:04:32.607Z,75.67
2022-12-17T04:09:53.017Z,80.93
2022-12-17T04:15:13.249Z,72.47
2022-12-17T04:20:33.850Z,76.53
2022-12-17T04:25:53.994Z,87.93
2022-12-17T04:31:14.249Z,73.67
2022-12-17T04:36:34.589Z,79.65
2022-12-17T04:41:54.629Z,81.43
2022-12-17T04:47:14.911Z,80.60
2022-12-17T04:52:35.193Z,82.13
2022-12-17T04:57:55.348Z,78.10
2022-12-17T05:03:29.614Z,79.70
2022-12-17T05:08:49.519Z,83.60
2022-12-17T05:14:09.690Z,82.45
2022-12-17T05:19:29.918Z,73.77
2022-12-17T05:24:50.286Z,85.50
2022-12-17T05:30:10.445Z,79.20
2022-12-17T05:35:30.772Z,77.43
2022-12-17T05:40:50.964Z,79.70
2022-12-17T05:46:11.240Z,69.77
2022-12-17T05:51:35.708Z,73.30
2022-12-17T05:56:58.413Z,75.03
2022-12-17T06:02:18.675Z,74.60
2022-12-17T06:07:38.842Z,70.55
2022-12-17T06:12:59.057Z,75.65
2022-12-17T06:18:19.342Z,76.03
2022-12-17T06:23:39.674Z,76.05
2022-12-17T06:29:00.922Z,71.63
2022-12-17T06:34:21.270Z,84.18
2022-12-17T06:39:41.702Z,73.93
2022-12-17T06:45:01.871Z,84.28
2022-12-17T06:50:23.570Z,84.75
2022-12-17T06:55:43.845Z,86.43
2022-12-17T07:01:22.060Z,84.80
2022-12-17T07:06:42.131Z,83.57
2022-12-17T07:12:02.429Z,78.60
2022-12-17T07:17:22.543Z,86.80
2022-12-17T07:22:42.679Z,87.43
2022-12-17T07:28:11.397Z,94.93
2022-12-17T07:33:31.632Z,93.40
2022-12-17T07:38:52.290Z,94.15
2022-12-17T07:44:12.560Z,94.88
2022-12-17T07:49:32.749Z,105.93
2022-12-17T07:54:53.048Z,105.20
2022-12-17T08:00:12.982Z,91.65
2022-12-17T08:05:46.835Z,95.47
2022-12-17T08:11:08.237Z,93.65
2022-12-17T08:16:28.498Z,101.93
2022-12-17T08:21:48.737Z,94.40
2022-12-17T08:27:09.118Z,101.33
2022-12-17T08:32:29.834Z,100.83
2022-12-17T08:37:50.143Z,122.37
2022-12-17T08:43:15.488Z,99.73
2022-12-17T08:48:35.710Z,101.90
2022-12-17T08:53:56.339Z,104.43
2022-12-17T08:59:16.530Z,96.18
2022-12-17T09:04:37.256Z,90.50
2022-12-17T09:09:57.305Z,96.40
2022-12-17T09:15:17.598Z,93.63
2022-12-17T09:20:37.733Z,84.38
2022-12-17T09:25:58.386Z,77.47
2022-12-17T09:31:19.687Z,91.77
2022-12-17T09:36:40.556Z,95.50
2022-12-17T09:42:15.392Z,104.82
2022-12-17T09:47:54.169Z,94.57
2022-12-17T09:53:14.340Z,85.68
2022-12-17T09:58:37.833Z,87.38
2022-12-17T10:04:00.834Z,80.23
2022-12-17T10:09:31.295Z,90.18
2022-12-17T10:14:51.959Z,79.93
2022-12-17T10:20:13.627Z,86.67
2022-12-17T10:25:37.029Z,87.50
2022-12-17T10:30:57.780Z,98.97
2022-12-17T10:36:18.231Z,85.83
2022-12-17T10:41:47.018Z,96.15
2022-12-17T10:47:15.284Z,102.43
2022-12-17T10:52:55.729Z,101.18
2022-12-17T10:58:21.851Z,98.90
2022-12-17T11:03:55.593Z,94.32
2022-12-17T11:09:19.789Z,100.60
2022-12-17T11:14:39.954Z,100.33
2022-12-17T11:20:09.220Z,90.57
2022-12-17T11:25:41.684Z,96.65
2022-12-17T11:31:24.030Z,102.37
2022-12-17T11:36:54.351Z,114.97
2022-12-17T11:42:26.981Z,106.83
2022-12-17T11:47:47.255Z,101.10
2022-12-17T11:53:16.459Z,96.73
2022-12-17T11:58:56.334Z,85.07
2022-12-17T12:04:25.680Z,79.27
2022-12-17T12:10:07.862Z,75.45
2022-12-17T12:15:51.157Z,63.83
2022-12-17T12:21:27.451Z,70.70
2022-12-17T12:27:17.146Z,60.40
2022-12-17T12:32:45.799Z,60.40
2022-12-17T12:38:06.594Z,51.53
2022-12-17T12:43:39.135Z,55.97
2022-12-17T12:49:32.244Z,56.77
2022-12-17T12:55:04.801Z,57.30
2022-12-17T13:00:25.501Z,60.22
2022-12-17T13:05:39.959Z,59.10
2022-12-17T13:10:41.672Z,55.47
2022-12-17T13:15:49.158Z,58.20
2022-12-17T13:21:00.105Z,55.83
2022-12-17T13:26:39.959Z,50.17
2022-12-17T13:32:19.098Z,56.40
2022-12-17T13:37:40.396Z,53.00
2022-12-17T13:42:46.076Z,43.90
2022-12-17T13:47:59.031Z,55.92
2022-12-17T13:53:10.660Z,53.07
2022-12-17T13:58:24.229Z,52.90
2022-12-17T14:03:49.892Z,45.50
2022-12-17T14:08:48.707Z,50.77
2022-12-17T14:13:50.560Z,52.90
2022-12-17T14:18:59.293Z,47.85
2022-12-17T14:24:01.191Z,50.38
2022-12-17T14:29:12.747Z,50.17
2022-12-17T14:34:14.518Z,49.83
2022-12-17T14:39:31.689Z,50.43
2022-12-17T14:44:33.690Z,52.40
2022-12-17T14:49:37.582Z,43.92
2022-12-17T14:54:45.288Z,51.53
2022-12-17T14:59:47.064Z,41.97
2022-12-17T15:04:49.340Z,43.07
2022-12-17T15:09:52.819Z,46.00
2022-12-17T15:14:54.467Z,46.60
2022-12-17T15:19:56.495Z,41.97
2022-12-17T15:24:58.208Z,46.03
2022-12-17T15:29:59.890Z,42.97
2022-12-17T15:35:01.847Z,49.45
2022-12-17T15:40:05.458Z,48.83
2022-12-17T15:45:07.890Z,44.65
2022-12-17T15:50:10.083Z,44.70
2022-12-17T15:55:15.432Z,50.33
2022-12-17T16:00:17.336Z,54.72
2022-12-17T16:05:20.956Z,58.03
2022-12-17T16:10:22.934Z,58.08
2022-12-17T16:15:24.794Z,56.13
2022-12-17T16:20:26.450Z,51.10
2022-12-17T16:25:28.148Z,51.33
2022-12-17T16:30:29.807Z,53.90
2022-12-17T16:35:31.499Z,49.90
2022-12-17T16:40:33.163Z,60.50
2022-12-17T16:45:34.823Z,45.03
2022-12-17T16:50:36.477Z,57.00
2022-12-17T16:55:43.059Z,50.42
2022-12-17T17:00:54.043Z,49.85
2022-12-17T17:06:00.180Z,54.00
2022-12-17T17:11:21.410Z,49.07
2022-12-17T17:16:24.513Z,50.70
2022-12-17T17:21:29.622Z,55.10
2022-12-17T17:26:33.162Z,53.10
2022-12-17T17:32:08.413Z,57.73
2022-12-17T17:36:56.818Z,56.05
2022-12-17T17:41:58.873Z,55.17
2022-12-17T17:47:00.849Z,59.93
2022-12-17T17:52:11.451Z,58.90
2022-12-17T17:57:13.720Z,57.37
2022-12-17T18:02:15.499Z,52.45
2022-12-17T18:07:25.267Z,48.23
2022-12-17T18:12:46.272Z,52.90
2022-12-17T18:17:51.329Z,52.75
2022-12-17T18:22:53.014Z,51.78
2022-12-17T18:27:54.947Z,49.63
2022-12-17T18:32:57.457Z,53.53
2022-12-17T18:37:59.424Z,50.17
2022-12-17T18:43:19.272Z,55.20
2022-12-17T18:48:21.018Z,50.15
2022-12-17T18:53:24.583Z,45.67
2022-12-17T18:58:26.234Z,54.07
2022-12-17T19:03:27.943Z,64.73
2022-12-17T19:08:29.599Z,59.60
2022-12-17T19:13:33.221Z,59.60
2022-12-17T19:18:35.294Z,76.10
2022-12-17T19:23:37.915Z,66.40
2022-12-17T19:28:41.350Z,69.00
2022-12-17T19:33:43.166Z,71.78
2022-12-17T19:38:45.943Z,64.00
2022-12-17T19:43:53.235Z,70.90
2022-12-17T19:48:57.327Z,67.30
2022-12-17T19:54:06.507Z,64.15
2022-12-17T19:59:10.917Z,69.72
2022-12-17T20:04:14.494Z,72.65
2022-12-17T20:09:17.518Z,62.47
2022-12-17T20:14:21.999Z,70.80
2022-12-17T20:19:31.806Z,62.53
2022-12-17T20:24:33.608Z,64.90
2022-12-17T20:29:35.891Z,69.20
2022-12-17T20:34:37.600Z,63.53
2022-12-17T20:39:39.271Z,63.67
2022-12-17T20:44:41.546Z,63.87
2022-12-17T20:49:43.217Z,68.37
2022-12-17T20:54:44.930Z,66.20
2022-12-17T20:59:46.687Z,68.50
2022-12-17T21:04:48.351Z,69.97
2022-12-17T21:09:50.050Z,64.03
2022-12-17T21:14:51.727Z,62.53
2022-12-17T21:19:53.432Z,50.33
2022-12-17T21:24:55.121Z,54.93
2022-12-17T21:29:57.280Z,50.50
2022-12-17T21:34:59.311Z,56.40
2022-12-17T21:40:01.972Z,65.77
2022-12-17T21:45:04.037Z,69.50
2022-12-17T21:50:06.399Z,59.17
2022-12-17T21:55:08.308Z,54.67
2022-12-17T22:00:10.672Z,62.27
2022-12-17T22:05:16.343Z,57.40
2022-12-17T22:10:38.894Z,64.67
2022-12-17T22:15:46.177Z,72.73
2022-12-17T22:20:58.410Z,68.10
2022-12-17T22:26:00.085Z,63.87
2022-12-17T22:31:25.273Z,62.67
2022-12-17T22:36:59.524Z,69.20
2022-12-17T22:44:38.631Z,75.47
2022-12-17T22:47:31.133Z,74.23
2022-12-17T22:52:32.858Z,81.50
2022-12-17T22:57:38.214Z,78.60
2022-12-17T23:02:40.792Z,62.47
2022-12-17T23:07:42.506Z,62.10
2022-12-17T23:12:51.052Z,58.20
2022-12-17T23:17:55.717Z,110.20
2022-12-17T23:22:57.683Z,62.83
2022-12-17T23:27:59.807Z,73.37
2022-12-17T23:33:01.479Z,72.40
2022-12-17T23:38:03.162Z,60.17
2022-12-17T23:43:04.837Z,56.03
2022-12-17T23:48:07.928Z,55.83
2022-12-17T23:53:09.600Z,55.83
2022-12-17T23:58:11.283Z,63.43
